createdAt,value
2023-05-26T00:01:47.590Z,101568.56
2023-05-26T00:04:18.406Z,101574.38
2023-05-26T00:06:47.339Z,101567.41
2023-05-26T00:09:15.197Z,101573.19
2023-05-26T00:11:42.248Z,101569.09
2023-05-26T00:14:11.337Z,101565.72
2023-05-26T00:16:38.321Z,101565.31
2023-05-26T00:19:08.642Z,101562.13
2023-05-26T00:21:39.228Z,101572.66
2023-05-26T00:24:06.740Z,101564.72
2023-05-26T00:26:33.689Z,101559.38
2023-05-26T00:29:01.158Z,101564.72
2023-05-26T00:31:28.791Z,101554.78
2023-05-26T00:33:55.675Z,101561.44
2023-05-26T00:36:22.561Z,101554.25
2023-05-26T00:38:49.426Z,101559.63
2023-05-26T00:41:16.319Z,101557.34
2023-05-26T00:43:43.278Z,101560.84
2023-05-26T00:46:10.078Z,101563.09
2023-05-26T00:48:36.864Z,101559.75
2023-05-26T00:51:04.059Z,101560.91
2023-05-26T00:53:30.998Z,101560.91
2023-05-26T00:55:57.900Z,101556.41
2023-05-26T00:58:25.644Z,101554.53
2023-05-26T01:00:52.630Z,101548.16
2023-05-26T01:03:19.574Z,101544.06
2023-05-26T01:05:47.033Z,101548.22
2023-05-26T01:08:14.048Z,101552.31
2023-05-26T01:10:41.226Z,101550.84
2023-05-26T01:13:13.066Z,101554.06
2023-05-26T01:15:47.958Z,101557.53
2023-05-26T01:18:42.428Z,101553.13
2023-05-26T01:21:15.072Z,101562.78
2023-05-26T01:24:04.105Z,101563.63
2023-05-26T01:27:05.446Z,101557.22
2023-05-26T01:29:36.968Z,101557.34
2023-05-26T01:32:08.781Z,101559.66
2023-05-26T01:34:35.852Z,101564.38
2023-05-26T01:37:02.964Z,101559.00
2023-05-26T01:39:30.266Z,101566.03
2023-05-26T01:42:03.079Z,101565.13
2023-05-26T01:44:52.048Z,101573.19
2023-05-26T01:47:20.649Z,101565.97
2023-05-26T01:49:49.156Z,101568.66
2023-05-26T01:52:18.988Z,101572.38
2023-05-26T01:54:49.689Z,101573.38
2023-05-26T01:57:17.511Z,101569.84
2023-05-26T01:59:44.922Z,101569.16
2023-05-26T02:02:11.909Z,101561.31
2023-05-26T02:04:39.040Z,101566.94
2023-05-26T02:07:06.899Z,101570.94
2023-05-26T02:09:34.574Z,101568.25
2023-05-26T02:12:02.907Z,101572.78
2023-05-26T02:14:30.053Z,101575.63
2023-05-26T02:16:56.820Z,101569.72
2023-05-26T02:19:24.419Z,101571.50
2023-05-26T02:21:52.780Z,101577.16
2023-05-26T02:24:19.846Z,101575.78
2023-05-26T02:26:46.648Z,101571.81
2023-05-26T02:29:14.557Z,101581.19
2023-05-26T02:31:43.059Z,101579.72
2023-05-26T02:34:11.813Z,101592.84
2023-05-26T02:36:38.811Z,101587.69
2023-05-26T02:39:05.653Z,101588.03
2023-05-26T02:41:32.516Z,101589.50
2023-05-26T02:43:59.303Z,101582.22
2023-05-26T02:46:30.269Z,101580.38
2023-05-26T02:48:58.203Z,101586.41
2023-05-26T02:51:25.072Z,101588.41
2023-05-26T02:53:52.000Z,101586.00
2023-05-26T02:56:18.943Z,101586.25
2023-05-26T02:58:45.716Z,101591.06
2023-05-26T03:01:13.003Z,101600.56
2023-05-26T03:03:40.178Z,101594.84
2023-05-26T03:06:07.379Z,101603.59
2023-05-26T03:08:34.710Z,101598.09
2023-05-26T03:11:09.198Z,101607.56
2023-05-26T03:13:37.186Z,101606.56
2023-05-26T03:16:04.179Z,101607.75
2023-05-26T03:18:33.539Z,101601.78
2023-05-26T03:21:00.605Z,101608.41
2023-05-26T03:23:27.452Z,101608.84
2023-05-26T03:25:54.337Z,101613.88
2023-05-26T03:28:22.138Z,101616.34
2023-05-26T03:30:48.966Z,101622.34
2023-05-26T03:33:15.881Z,101621.34
2023-05-26T03:35:42.754Z,101621.91
2023-05-26T03:38:09.678Z,101625.59
2023-05-26T03:40:39.419Z,101625.97
2023-05-26T03:43:06.513Z,101632.34
2023-05-26T03:45:42.257Z,101629.94
2023-05-26T03:48:13.910Z,101630.75
2023-05-26T03:50:44.933Z,101634.06
2023-05-26T03:53:12.136Z,101640.19
2023-05-26T03:55:39.151Z,101629.47
2023-05-26T03:58:06.233Z,101637.91
2023-05-26T04:00:33.503Z,101627.63
2023-05-26T04:03:01.337Z,101632.63
2023-05-26T04:05:28.449Z,101630.06
2023-05-26T04:07:55.380Z,101623.47
2023-05-26T04:10:22.199Z,101627.72
2023-05-26T04:12:49.188Z,101626.44
2023-05-26T04:15:16.103Z,101627.47
2023-05-26T04:17:45.478Z,101632.66
2023-05-26T04:20:12.680Z,101633.03
2023-05-26T04:22:40.410Z,101639.22
2023-05-26T04:25:08.521Z,101636.16
2023-05-26T04:27:48.353Z,101639.00
2023-05-26T04:30:40.334Z,101645.66
2023-05-26T04:33:40.679Z,101646.88
2023-05-26T04:36:26.291Z,101640.50
2023-05-26T04:38:56.050Z,101647.34
2023-05-26T04:41:23.063Z,101645.94
2023-05-26T04:43:49.883Z,101650.13
2023-05-26T04:46:17.744Z,101658.88
2023-05-26T04:48:45.210Z,101655.00
2023-05-26T04:51:12.243Z,101654.56
2023-05-26T04:53:39.252Z,101660.25
2023-05-26T04:56:07.831Z,101660.47
2023-05-26T04:58:40.932Z,101659.25
2023-05-26T05:01:09.248Z,101661.31
2023-05-26T05:03:51.270Z,101662.31
2023-05-26T05:06:23.977Z,101668.50
2023-05-26T05:08:51.004Z,101673.94
2023-05-26T05:11:18.180Z,101674.94
2023-05-26T05:13:45.451Z,101670.88
2023-05-26T05:16:13.434Z,101682.44
2023-05-26T05:18:40.375Z,101685.00
2023-05-26T05:21:07.779Z,101683.34
2023-05-26T05:23:35.581Z,101687.06
2023-05-26T05:26:04.495Z,101686.69
2023-05-26T05:28:33.007Z,101693.63
2023-05-26T05:31:10.858Z,101695.50
2023-05-26T05:33:40.103Z,101697.13
2023-05-26T05:36:07.305Z,101698.31
2023-05-26T05:38:34.150Z,101698.50
2023-05-26T05:41:00.986Z,101692.59
2023-05-26T05:43:30.052Z,101692.59
2023-05-26T05:45:57.592Z,101682.72
2023-05-26T05:48:40.965Z,101689.66
2023-05-26T05:51:10.714Z,101692.69
2023-05-26T05:53:37.587Z,101692.41
2023-05-26T05:56:05.078Z,101695.09
2023-05-26T05:58:32.440Z,101697.69
2023-05-26T06:00:59.496Z,101706.47
2023-05-26T06:03:26.740Z,101706.47
2023-05-26T06:05:53.780Z,101711.34
2023-05-26T06:08:20.740Z,101702.03
2023-05-26T06:10:47.763Z,101710.16
2023-05-26T06:13:14.895Z,101709.31
2023-05-26T06:15:42.011Z,101704.34
2023-05-26T06:18:09.025Z,101713.41
2023-05-26T06:20:36.026Z,101706.56
2023-05-26T06:23:02.898Z,101712.84
2023-05-26T06:25:30.093Z,101719.88
2023-05-26T06:27:57.543Z,101718.56
2023-05-26T06:30:25.394Z,101718.38
2023-05-26T06:33:02.670Z,101717.47
2023-05-26T06:35:29.647Z,101721.44
2023-05-26T06:37:56.999Z,101716.88
2023-05-26T06:40:23.866Z,101719.34
2023-05-26T06:42:51.228Z,101727.94
2023-05-26T06:45:18.537Z,101729.66
2023-05-26T06:47:49.186Z,101729.53
2023-05-26T06:50:17.196Z,101729.22
2023-05-26T06:52:46.080Z,101725.59
2023-05-26T06:55:13.005Z,101723.34
2023-05-26T06:57:39.918Z,101731.59
2023-05-26T07:00:08.177Z,101740.97
2023-05-26T07:02:36.407Z,101743.13
2023-05-26T07:05:21.506Z,101741.16
2023-05-26T07:07:48.501Z,101737.56
2023-05-26T07:10:16.454Z,101735.56
2023-05-26T07:12:43.340Z,101733.31
2023-05-26T07:15:27.198Z,101736.91
2023-05-26T07:17:54.097Z,101743.81
2023-05-26T07:20:21.120Z,101740.94
2023-05-26T07:22:49.268Z,101745.47
2023-05-26T07:25:21.153Z,101744.88
2023-05-26T07:27:49.808Z,101748.41
2023-05-26T07:30:16.861Z,101741.03
2023-05-26T07:33:06.897Z,101745.78
2023-05-26T07:35:34.022Z,101743.81
2023-05-26T07:38:04.098Z,101745.47
2023-05-26T07:40:35.707Z,101745.09
2023-05-26T07:43:04.172Z,101753.22
2023-05-26T07:45:31.538Z,101752.81
2023-05-26T07:47:58.497Z,101762.72
2023-05-26T07:50:25.447Z,101756.97
2023-05-26T07:52:52.170Z,101759.47
2023-05-26T07:55:19.042Z,101759.75
2023-05-26T07:57:45.946Z,101762.03
2023-05-26T08:00:14.877Z,101760.97
2023-05-26T08:02:42.998Z,101757.47
2023-05-26T08:05:09.962Z,101757.03
2023-05-26T08:07:36.830Z,101751.22
2023-05-26T08:10:04.674Z,101749.75
2023-05-26T08:12:31.753Z,101758.03
2023-05-26T08:14:58.784Z,101756.16
2023-05-26T08:17:25.710Z,101753.44
2023-05-26T08:19:52.539Z,101751.19
2023-05-26T08:22:19.404Z,101747.44
2023-05-26T08:24:46.374Z,101748.28
2023-05-26T08:27:13.382Z,101747.66
2023-05-26T08:29:40.426Z,101751.59
2023-05-26T08:32:07.315Z,101761.50
2023-05-26T08:34:34.171Z,101759.59
2023-05-26T08:37:01.030Z,101766.91
2023-05-26T08:39:27.851Z,101766.25
2023-05-26T08:42:00.672Z,101773.88
2023-05-26T08:44:27.750Z,101769.31
2023-05-26T08:46:58.660Z,101766.09
2023-05-26T08:49:26.022Z,101757.56
2023-05-26T08:52:03.622Z,101758.81
2023-05-26T08:54:30.548Z,101754.19
2023-05-26T08:56:58.952Z,101754.97
2023-05-26T08:59:29.026Z,101747.50
2023-05-26T09:01:57.596Z,101748.22
2023-05-26T09:04:25.980Z,101744.94
2023-05-26T09:07:09.357Z,101752.41
2023-05-26T09:09:40.006Z,101746.50
2023-05-26T09:12:11.637Z,101764.19
2023-05-26T09:14:39.763Z,101757.47
2023-05-26T09:17:07.313Z,101751.28
2023-05-26T09:19:34.807Z,101762.44
2023-05-26T09:22:10.509Z,101770.38
2023-05-26T09:25:03.669Z,101774.88
2023-05-26T09:27:30.692Z,101774.31
2023-05-26T09:30:01.873Z,101772.66
2023-05-26T09:32:30.288Z,101768.59
2023-05-26T09:35:00.099Z,101768.94
2023-05-26T09:37:32.139Z,101765.06
2023-05-26T09:40:12.655Z,101770.59
2023-05-26T09:42:46.855Z,101779.38
2023-05-26T09:45:13.748Z,101778.50
2023-05-26T09:47:40.787Z,101774.13
2023-05-26T09:50:08.410Z,101770.44
2023-05-26T09:52:36.051Z,101775.94
2023-05-26T09:55:04.330Z,101775.09
2023-05-26T09:57:32.076Z,101786.38
2023-05-26T10:00:02.362Z,101784.41
2023-05-26T10:02:35.222Z,101785.75
2023-05-26T10:05:02.825Z,101782.81
2023-05-26T10:07:31.348Z,101784.94
2023-05-26T10:10:03.198Z,101783.94
2023-05-26T10:12:33.882Z,101780.81
2023-05-26T10:15:02.369Z,101791.09
2023-05-26T10:17:30.189Z,101785.97
2023-05-26T10:19:58.907Z,101788.97
2023-05-26T10:22:29.380Z,101781.47
2023-05-26T10:25:01.468Z,101774.56
2023-05-26T10:28:05.531Z,101784.75
2023-05-26T10:30:33.372Z,101782.53
2023-05-26T10:33:11.718Z,101783.28
2023-05-26T10:35:39.466Z,101783.81
2023-05-26T10:38:06.995Z,101787.78
2023-05-26T10:40:34.241Z,101791.25
2023-05-26T10:43:22.620Z,101796.91
2023-05-26T10:46:04.015Z,101792.88
2023-05-26T10:48:40.087Z,101800.34
2023-05-26T10:51:15.720Z,101792.31
2023-05-26T10:53:45.650Z,101803.72
2023-05-26T10:56:16.157Z,101802.38
2023-05-26T10:58:46.861Z,101801.16
2023-05-26T11:01:18.310Z,101801.00
2023-05-26T11:03:48.377Z,101802.22
2023-05-26T11:06:20.015Z,101805.22
2023-05-26T11:08:49.661Z,101805.44
2023-05-26T11:11:30.858Z,101806.69
2023-05-26T11:14:07.553Z,101810.84
2023-05-26T11:16:39.637Z,101809.91
2023-05-26T11:19:08.533Z,101800.72
2023-05-26T11:21:36.652Z,101803.56
2023-05-26T11:24:06.356Z,101807.34
2023-05-26T11:26:34.826Z,101796.16
2023-05-26T11:29:06.028Z,101802.47
2023-05-26T11:31:33.583Z,101804.63
2023-05-26T11:34:03.873Z,101796.19
2023-05-26T11:36:31.073Z,101791.19
2023-05-26T11:39:02.717Z,101800.28
2023-05-26T11:41:30.868Z,101797.13
2023-05-26T11:43:58.432Z,101791.69
2023-05-26T11:46:31.232Z,101796.53
2023-05-26T11:48:58.463Z,101788.47
2023-05-26T11:51:25.338Z,101792.16
2023-05-26T11:53:59.656Z,101785.38
2023-05-26T11:56:34.580Z,101788.31
2023-05-26T11:59:02.120Z,101777.09
2023-05-26T12:01:29.548Z,101795.88
2023-05-26T12:03:58.977Z,101790.78
2023-05-26T12:06:28.140Z,101783.22
2023-05-26T12:09:07.381Z,101791.47
2023-05-26T12:11:36.725Z,101788.25
2023-05-26T12:14:04.607Z,101783.28
2023-05-26T12:16:48.718Z,101786.00
2023-05-26T12:19:20.205Z,101779.91
2023-05-26T12:21:48.420Z,101778.06
2023-05-26T12:24:38.666Z,101776.34
2023-05-26T12:27:09.772Z,101775.50
2023-05-26T12:29:40.456Z,101770.72
2023-05-26T12:32:08.684Z,101769.91
2023-05-26T12:34:43.100Z,101770.34
2023-05-26T12:37:10.514Z,101765.31
2023-05-26T12:39:37.457Z,101762.28
2023-05-26T12:42:04.864Z,101769.66
2023-05-26T12:44:31.776Z,101764.50
2023-05-26T12:46:58.641Z,101755.34
2023-05-26T12:49:26.084Z,101750.31
2023-05-26T12:51:53.058Z,101759.53
2023-05-26T12:54:21.136Z,101752.97
2023-05-26T12:56:48.365Z,101745.47
2023-05-26T12:59:20.761Z,101747.03
2023-05-26T13:01:49.031Z,101743.53
2023-05-26T13:04:17.667Z,101741.56
2023-05-26T13:06:44.805Z,101743.38
2023-05-26T13:09:12.822Z,101741.88
2023-05-26T13:11:40.096Z,101741.53
2023-05-26T13:14:07.198Z,101741.09
2023-05-26T13:16:34.167Z,101747.69
2023-05-26T13:19:01.366Z,101746.91
2023-05-26T13:21:28.260Z,101762.16
2023-05-26T13:23:57.148Z,101752.31
2023-05-26T13:26:25.064Z,101755.03
2023-05-26T13:28:52.557Z,101753.25
2023-05-26T13:31:21.181Z,101744.59
2023-05-26T13:33:48.036Z,101747.91
2023-05-26T13:36:14.868Z,101747.84
2023-05-26T13:38:42.015Z,101740.63
2023-05-26T13:41:10.721Z,101740.84
2023-05-26T13:43:38.205Z,101733.13
2023-05-26T13:46:05.789Z,101746.09
2023-05-26T13:48:33.306Z,101732.88
2023-05-26T13:51:00.173Z,101744.34
2023-05-26T13:53:27.086Z,101743.69
2023-05-26T13:55:54.703Z,101746.00
2023-05-26T13:58:21.516Z,101740.81
2023-05-26T14:00:48.348Z,101737.31
2023-05-26T14:03:15.271Z,101738.44
2023-05-26T14:05:42.710Z,101734.22
2023-05-26T14:08:09.548Z,101728.47
2023-05-26T14:10:37.457Z,101723.13
2023-05-26T14:13:04.551Z,101719.28
2023-05-26T14:15:31.423Z,101718.25
2023-05-26T14:21:43.774Z,101718.72
2023-05-26T14:23:15.744Z,101714.94
2023-05-26T14:25:42.749Z,101717.44
2023-05-26T14:28:09.819Z,101716.47
2023-05-26T14:30:36.779Z,101713.09
2023-05-26T14:33:06.442Z,101708.47
2023-05-26T14:35:33.460Z,101714.47
2023-05-26T14:38:00.471Z,101712.47
2023-05-26T14:40:30.837Z,101706.00
2023-05-26T14:42:58.101Z,101702.69
2023-05-26T14:45:24.995Z,101701.69
2023-05-26T14:47:51.846Z,101690.78
2023-05-26T14:50:20.868Z,101693.50
2023-05-26T14:52:49.244Z,101693.16
2023-05-26T14:55:17.939Z,101695.16
2023-05-26T14:57:44.844Z,101687.38
2023-05-26T15:00:12.274Z,101690.25
2023-05-26T15:02:39.197Z,101691.84
2023-05-26T15:05:06.669Z,101688.00
2023-05-26T15:07:33.876Z,101686.25
2023-05-26T15:10:00.704Z,101691.31
2023-05-26T15:12:27.620Z,101691.28
2023-05-26T15:14:54.417Z,101689.19
2023-05-26T15:17:21.235Z,101688.94
2023-05-26T15:19:49.517Z,101686.56
2023-05-26T15:22:16.687Z,101678.28
2023-05-26T15:24:43.686Z,101683.13
2023-05-26T15:27:11.262Z,101682.63
2023-05-26T15:29:38.884Z,101678.97
2023-05-26T15:32:06.451Z,101680.38
2023-05-26T15:34:33.330Z,101679.94
2023-05-26T15:37:00.151Z,101674.47
2023-05-26T15:39:26.996Z,101673.00
2023-05-26T15:41:53.917Z,101680.56
2023-05-26T15:44:20.904Z,101673.47
2023-05-26T15:46:47.858Z,101679.97
2023-05-26T15:49:14.855Z,101675.97
2023-05-26T15:51:41.788Z,101683.66
2023-05-26T15:54:08.920Z,101679.41
2023-05-26T15:56:36.159Z,101678.22
2023-05-26T15:59:03.345Z,101676.56
2023-05-26T16:01:30.393Z,101673.16
2023-05-26T16:03:57.578Z,101670.31
2023-05-26T16:06:24.571Z,101677.41
2023-05-26T16:08:51.476Z,101673.38
2023-05-26T16:11:18.402Z,101675.75
2023-05-26T16:13:45.851Z,101671.94
2023-05-26T16:16:13.298Z,101671.38
2023-05-26T16:18:40.162Z,101671.72
2023-05-26T16:21:07.496Z,101666.88
2023-05-26T16:23:34.421Z,101664.16
2023-05-26T16:26:02.527Z,101654.91
2023-05-26T16:28:29.465Z,101657.88
2023-05-26T16:30:57.155Z,101669.09
2023-05-26T16:33:24.651Z,101666.16
2023-05-26T16:35:53.489Z,101666.88
2023-05-26T16:38:22.049Z,101659.19
2023-05-26T16:40:49.523Z,101657.88
2023-05-26T16:43:23.668Z,101652.34
2023-05-26T16:46:03.127Z,101652.56
2023-05-26T16:48:30.052Z,101650.91
2023-05-26T16:50:56.956Z,101652.31
2023-05-26T16:53:23.733Z,101648.31
2023-05-26T16:55:50.960Z,101645.84
2023-05-26T16:58:17.757Z,101643.59
2023-05-26T17:00:45.051Z,101643.38
2023-05-26T17:03:12.438Z,101646.47
2023-05-26T17:05:41.559Z,101638.59
2023-05-26T17:08:08.462Z,101634.38
2023-05-26T17:10:35.292Z,101644.03
2023-05-26T17:13:03.379Z,101655.94
2023-05-26T17:15:30.261Z,101650.00
2023-05-26T17:17:57.112Z,101655.34
2023-05-26T17:20:24.204Z,101646.63
2023-05-26T17:22:51.010Z,101647.69
2023-05-26T17:25:18.093Z,101649.69
2023-05-26T17:27:44.895Z,101646.63
2023-05-26T17:30:12.158Z,101646.25
2023-05-26T17:32:39.051Z,101638.25
2023-05-26T17:35:06.481Z,101655.78
2023-05-26T17:37:33.385Z,101645.91
2023-05-26T17:40:00.390Z,101647.34
2023-05-26T17:42:27.222Z,101641.94
2023-05-26T17:44:54.044Z,101644.06
2023-05-26T17:47:24.136Z,101655.22
2023-05-26T17:49:50.920Z,101646.25
2023-05-26T17:52:17.662Z,101651.63
2023-05-26T17:54:44.509Z,101642.78
2023-05-26T17:57:11.251Z,101646.44
2023-05-26T17:59:38.127Z,101642.34
2023-05-26T18:02:05.272Z,101642.44
2023-05-26T18:04:32.110Z,101644.53
2023-05-26T18:06:59.133Z,101648.66
2023-05-26T18:09:26.048Z,101654.63
2023-05-26T18:11:52.939Z,101653.81
2023-05-26T18:14:19.814Z,101658.56
2023-05-26T18:16:47.460Z,101648.56
2023-05-26T18:19:14.952Z,101645.94
2023-05-26T18:21:41.716Z,101646.84
2023-05-26T18:24:08.507Z,101641.47
2023-05-26T18:26:35.448Z,101642.59
2023-05-26T18:29:03.437Z,101652.06
2023-05-26T18:31:30.481Z,101643.97
2023-05-26T18:34:00.445Z,101649.03
2023-05-26T18:36:31.213Z,101645.91
2023-05-26T18:38:58.023Z,101651.38
2023-05-26T18:41:25.209Z,101650.56
2023-05-26T18:43:54.838Z,101649.56
2023-05-26T18:46:21.683Z,101646.25
2023-05-26T18:48:48.668Z,101641.69
2023-05-26T18:51:17.565Z,101640.91
2023-05-26T18:53:44.558Z,101644.84
2023-05-26T18:56:12.780Z,101646.94
2023-05-26T18:58:39.689Z,101638.22
2023-05-26T19:01:06.502Z,101637.00
2023-05-26T19:03:35.739Z,101624.47
2023-05-26T19:06:02.828Z,101643.13
2023-05-26T19:08:29.669Z,101637.28
2023-05-26T19:10:56.914Z,101639.53
2023-05-26T19:13:24.031Z,101638.50
2023-05-26T19:15:50.965Z,101640.97
2023-05-26T19:18:18.302Z,101639.53
2023-05-26T19:20:45.205Z,101641.78
2023-05-26T19:23:12.033Z,101644.72
2023-05-26T19:25:39.281Z,101642.47
2023-05-26T19:28:06.093Z,101643.94
2023-05-26T19:30:33.016Z,101644.44
2023-05-26T19:33:00.065Z,101640.91
2023-05-26T19:35:26.977Z,101635.94
2023-05-26T19:37:53.850Z,101640.75
2023-05-26T19:40:20.751Z,101641.16
2023-05-26T19:42:47.590Z,101638.50
2023-05-26T19:45:14.534Z,101646.22
2023-05-26T19:47:41.404Z,101650.34
2023-05-26T19:50:08.751Z,101650.13
2023-05-26T19:52:35.484Z,101660.50
2023-05-26T19:55:02.333Z,101658.22
2023-05-26T19:57:31.617Z,101657.84
2023-05-26T19:59:58.612Z,101658.69
2023-05-26T20:02:26.207Z,101656.19
2023-05-26T20:04:53.506Z,101658.06
2023-05-26T20:07:20.450Z,101654.53
2023-05-26T20:09:47.908Z,101656.19
2023-05-26T20:12:14.703Z,101648.75
2023-05-26T20:14:42.418Z,101652.50
2023-05-26T20:17:09.410Z,101644.41
2023-05-26T20:19:47.125Z,101646.47
2023-05-26T20:22:18.440Z,101648.97
2023-05-26T20:24:46.281Z,101647.19
2023-05-26T20:27:13.231Z,101645.16
2023-05-26T20:29:40.178Z,101653.06
2023-05-26T20:32:07.388Z,101655.09
2023-05-26T20:34:34.254Z,101656.53
2023-05-26T20:37:01.436Z,101650.91
2023-05-26T20:39:29.339Z,101652.38
2023-05-26T20:41:56.703Z,101661.09
2023-05-26T20:44:23.591Z,101655.84
2023-05-26T20:46:50.736Z,101654.22
2023-05-26T20:49:17.673Z,101658.97
2023-05-26T20:51:45.089Z,101649.44
2023-05-26T20:54:12.005Z,101654.25
2023-05-26T20:56:38.871Z,101655.06
2023-05-26T20:59:06.150Z,101649.91
2023-05-26T21:01:33.046Z,101656.34
2023-05-26T21:04:00.571Z,101651.63
2023-05-26T21:06:27.491Z,101652.84
2023-05-26T21:08:54.896Z,101654.50
2023-05-26T21:11:22.134Z,101663.16
2023-05-26T21:13:48.941Z,101657.94
2023-05-26T21:16:15.941Z,101654.22
2023-05-26T21:18:42.704Z,101657.31
2023-05-26T21:21:09.822Z,101658.56
2023-05-26T21:23:36.744Z,101660.91
2023-05-26T21:26:03.927Z,101656.75
2023-05-26T21:28:30.870Z,101661.53
2023-05-26T21:30:57.687Z,101659.91
2023-05-26T21:33:24.544Z,101652.03
2023-05-26T21:35:51.524Z,101652.25
2023-05-26T21:38:18.441Z,101648.09
2023-05-26T21:40:45.344Z,101644.78
2023-05-26T21:43:12.261Z,101645.22
2023-05-26T21:45:39.177Z,101642.75
2023-05-26T21:48:06.101Z,101638.59
2023-05-26T21:50:32.965Z,101637.97
2023-05-26T21:52:59.788Z,101626.81
2023-05-26T21:55:26.587Z,101633.47
2023-05-26T21:57:53.350Z,101634.50
2023-05-26T22:00:20.358Z,101624.16
2023-05-26T22:02:47.250Z,101619.19
2023-05-26T22:05:14.437Z,101618.16
2023-05-26T22:07:41.336Z,101622.91
2023-05-26T22:10:09.226Z,101623.94
2023-05-26T22:12:36.462Z,101622.91
2023-05-26T22:15:07.315Z,101624.38
2023-05-26T22:17:35.008Z,101628.13
2023-05-26T22:20:02.992Z,101632.06
2023-05-26T22:22:29.814Z,101630.66
2023-05-26T22:24:56.600Z,101632.09
2023-05-26T22:27:41.996Z,101626.94
2023-05-26T22:30:09.318Z,101624.63
2023-05-26T22:32:36.305Z,101632.13
2023-05-26T22:35:03.489Z,101634.22
2023-05-26T22:37:30.358Z,101628.81
2023-05-26T22:39:57.314Z,101627.78
2023-05-26T22:42:24.279Z,101628.22
2023-05-26T22:44:51.320Z,101629.25
2023-05-26T22:47:18.872Z,101622.19
2023-05-26T22:49:48.369Z,101632.16
2023-05-26T22:52:15.798Z,101623.88
2023-05-26T22:54:42.773Z,101627.59
2023-05-26T22:57:10.264Z,101624.28
2023-05-26T22:59:37.199Z,101634.47
2023-05-26T23:02:04.312Z,101629.91
2023-05-26T23:04:31.413Z,101625.75
2023-05-26T23:06:59.493Z,101621.63
2023-05-26T23:09:30.630Z,101621.41
2023-05-26T23:11:57.597Z,101624.94
2023-05-26T23:14:24.512Z,101628.88
2023-05-26T23:16:51.433Z,101621.63
2023-05-26T23:19:18.698Z,101620.16
2023-05-26T23:21:45.594Z,101610.44
2023-05-26T23:24:12.568Z,101609.81
2023-05-26T23:26:39.545Z,101602.78
2023-05-26T23:29:06.464Z,101605.25
2023-05-26T23:31:33.436Z,101603.41
2023-05-26T23:34:00.397Z,101607.13
2023-05-26T23:36:27.387Z,101602.56
2023-05-26T23:38:54.342Z,101595.31
2023-05-26T23:41:21.269Z,101590.97
2023-05-26T23:43:48.224Z,101587.44
2023-05-26T23:46:15.807Z,101586.22
2023-05-26T23:48:42.892Z,101587.66
2023-05-26T23:51:09.818Z,101592.19
2023-05-26T23:53:36.743Z,101592.19
2023-05-26T23:56:03.691Z,101590.34
2023-05-26T23:58:30.593Z,101587.66
